East End, Virginia
Current Conditions -  °F | °C
As of 5:54 AM on Sunday 23 Nov 2014 (Local Time) from KRIC Reporting Station
Scattered Clouds Scattered Clouds  
Wind Chill: 32°   Ceiling: Unl
Heat Index: 37°   Visibility: 10mi
Dew Point: 22°   Wind: 7mph
Humidity: 54%   Direction: 190°S
Pressure: 30.26"   Gusts: NA
Location:  37.556°N, 77.3779°W
Report Text: KRIC 231054Z 19006KT 10SM SCT250 03/M06 A3026 RMK AO2 SLP254 T00281056
Loading
Personal Weather Stations






























Interactive Weather Map New forecast layout! Learn more

10-Day Weather Forecast

Advertisements
Track Severe Weather on mobile